createdAt,value
2023-05-12T00:02:18.955Z,18.50
2023-05-12T00:04:48.191Z,18.30
2023-05-12T00:07:16.719Z,17.30
2023-05-12T00:09:45.489Z,16.80
2023-05-12T00:12:13.769Z,19.00
2023-05-12T00:14:42.463Z,17.80
2023-05-12T00:17:10.952Z,17.23
2023-05-12T00:19:42.604Z,16.92
2023-05-12T00:22:12.159Z,16.10
2023-05-12T00:24:41.253Z,20.92
2023-05-12T00:27:10.255Z,20.73
2023-05-12T00:29:39.050Z,20.50
2023-05-12T00:32:07.756Z,18.60
2023-05-12T00:34:36.405Z,20.45
2023-05-12T00:37:05.025Z,19.52
2023-05-12T00:39:33.832Z,19.02
2023-05-12T00:42:03.375Z,17.67
2023-05-12T00:44:32.678Z,18.38
2023-05-12T00:47:01.333Z,15.13
2023-05-12T00:49:30.394Z,16.52
2023-05-12T00:51:59.791Z,17.88
2023-05-12T00:54:29.342Z,17.90
2023-05-12T00:56:58.218Z,15.82
2023-05-12T00:59:27.358Z,15.02
2023-05-12T01:01:56.615Z,15.63
2023-05-12T01:04:25.690Z,14.48
2023-05-12T01:07:07.633Z,17.23
2023-05-12T01:09:37.220Z,14.13
2023-05-12T01:12:05.734Z,17.13
2023-05-12T01:14:38.414Z,15.60
2023-05-12T01:17:12.344Z,19.35
2023-05-12T01:19:58.923Z,18.10
2023-05-12T01:22:31.709Z,14.50
2023-05-12T01:25:07.937Z,15.88
2023-05-12T01:27:40.030Z,17.05
2023-05-12T01:30:13.455Z,17.05
2023-05-12T01:32:42.761Z,16.35
2023-05-12T01:35:11.861Z,16.73
2023-05-12T01:37:46.211Z,14.68
2023-05-12T01:40:15.279Z,16.35
2023-05-12T01:42:43.954Z,20.02
2023-05-12T01:45:14.083Z,17.90
2023-05-12T01:47:42.882Z,15.63
2023-05-12T01:50:11.433Z,19.52
2023-05-12T01:52:41.002Z,18.95
2023-05-12T01:55:14.387Z,18.85
2023-05-12T01:57:51.424Z,15.23
2023-05-12T02:00:22.037Z,14.90
2023-05-12T02:02:53.830Z,18.90
2023-05-12T02:05:22.353Z,17.77
2023-05-12T02:07:52.105Z,24.48
2023-05-12T02:10:21.030Z,18.02
2023-05-12T02:12:50.029Z,21.77
2023-05-12T02:15:18.482Z,18.95
2023-05-12T02:17:54.633Z,20.98
2023-05-12T02:20:25.354Z,20.50
2023-05-12T02:22:54.072Z,28.25
2023-05-12T02:25:22.861Z,23.75
2023-05-12T02:27:52.079Z,24.60
2023-05-12T02:30:21.056Z,25.05
2023-05-12T02:32:50.039Z,27.50
2023-05-12T02:35:18.386Z,24.67
2023-05-12T02:37:47.288Z,20.60
2023-05-12T02:40:16.548Z,20.65
2023-05-12T02:42:45.814Z,16.80
2023-05-12T02:45:14.176Z,21.13
2023-05-12T02:47:42.927Z,19.48
2023-05-12T02:50:11.833Z,18.83
2023-05-12T02:52:40.622Z,18.73
2023-05-12T02:55:10.049Z,17.48
2023-05-12T02:57:39.944Z,22.70
2023-05-12T03:00:08.768Z,23.35
2023-05-12T03:05:09.473Z,27.15
2023-05-12T03:07:39.737Z,74.30
2023-05-12T03:10:10.679Z,34.92
2023-05-12T03:12:39.496Z,30.33
2023-05-12T03:15:09.113Z,24.65
2023-05-12T03:17:38.138Z,22.08
2023-05-12T03:20:07.456Z,19.00
2023-05-12T03:22:36.486Z,13.75
2023-05-12T03:25:05.532Z,17.20
2023-05-12T03:27:34.166Z,20.48
2023-05-12T03:30:05.588Z,22.35
2023-05-12T03:32:39.632Z,22.63
2023-05-12T03:35:10.755Z,31.83
2023-05-12T03:37:39.626Z,24.92
2023-05-12T03:40:09.684Z,24.60
2023-05-12T03:42:38.363Z,18.60
2023-05-12T03:45:07.424Z,23.38
2023-05-12T03:47:36.423Z,24.05
2023-05-12T03:50:05.185Z,29.65
2023-05-12T03:52:34.031Z,23.35
2023-05-12T03:55:03.353Z,25.85
2023-05-12T03:57:31.993Z,24.27
2023-05-12T04:00:00.717Z,23.65
2023-05-12T04:02:29.926Z,24.55
2023-05-12T04:04:58.790Z,20.83
2023-05-12T04:07:28.192Z,33.25
2023-05-12T04:09:56.524Z,20.17
2023-05-12T04:12:26.375Z,20.38
2023-05-12T04:14:55.082Z,23.58
2023-05-12T04:17:23.949Z,20.88
2023-05-12T04:19:53.982Z,20.92
2023-05-12T04:22:24.834Z,24.38
2023-05-12T04:24:53.918Z,46.00
2023-05-12T04:27:22.687Z,22.75
2023-05-12T04:29:51.782Z,20.73
2023-05-12T04:32:20.477Z,16.13
2023-05-12T04:34:48.836Z,21.63
2023-05-12T04:37:18.201Z,16.33
2023-05-12T04:39:46.873Z,24.85
2023-05-12T04:42:15.528Z,37.65
2023-05-12T04:44:46.252Z,57.75
2023-05-12T04:47:15.956Z,23.30
2023-05-12T04:49:44.219Z,19.65
2023-05-12T04:52:15.238Z,15.73
2023-05-12T04:54:44.001Z,15.10
2023-05-12T04:57:13.020Z,11.23
2023-05-12T04:59:42.719Z,12.63
2023-05-12T05:02:14.757Z,15.75
2023-05-12T05:04:43.278Z,12.88
2023-05-12T05:07:12.176Z,20.33
2023-05-12T05:09:40.519Z,18.60
2023-05-12T05:12:09.232Z,13.98
2023-05-12T05:14:37.641Z,9.25
2023-05-12T05:17:08.172Z,11.65
2023-05-12T05:19:49.843Z,14.88
2023-05-12T05:22:23.565Z,17.42
2023-05-12T05:24:52.060Z,13.35
2023-05-12T05:27:20.906Z,12.70
2023-05-12T05:29:49.510Z,22.70
2023-05-12T05:32:18.568Z,17.85
2023-05-12T05:34:46.946Z,22.85
2023-05-12T05:37:15.585Z,10.82
2023-05-12T05:39:44.065Z,13.13
2023-05-12T05:42:12.945Z,11.82
2023-05-12T05:44:42.933Z,29.35
2023-05-12T05:47:11.857Z,12.98
2023-05-12T05:49:41.005Z,9.68
2023-05-12T05:52:10.445Z,13.15
2023-05-12T05:54:39.483Z,10.27
2023-05-12T05:57:08.251Z,17.00
2023-05-12T05:59:37.162Z,10.35
2023-05-12T06:02:07.468Z,11.27
2023-05-12T06:04:35.876Z,10.68
2023-05-12T06:07:04.567Z,10.43
2023-05-12T06:09:32.853Z,10.95
2023-05-12T06:12:01.415Z,34.22
2023-05-12T06:14:30.122Z,28.75
2023-05-12T06:16:58.855Z,10.43
2023-05-12T06:19:27.069Z,8.57
2023-05-12T06:21:55.845Z,10.18
2023-05-12T06:24:25.407Z,8.55
2023-05-12T06:26:54.012Z,9.57
2023-05-12T06:29:22.904Z,9.82
2023-05-12T06:31:51.459Z,8.73
2023-05-12T06:34:19.746Z,9.75
2023-05-12T06:36:49.108Z,8.73
2023-05-12T06:39:17.422Z,16.20
2023-05-12T06:41:46.946Z,8.18
2023-05-12T06:44:21.995Z,8.77
2023-05-12T06:46:53.936Z,9.85
2023-05-12T06:49:22.282Z,8.88
2023-05-12T06:51:50.787Z,11.00
2023-05-12T06:54:19.080Z,10.77
2023-05-12T06:56:47.778Z,9.68
2023-05-12T06:59:16.092Z,13.85
2023-05-12T07:01:44.807Z,11.05
2023-05-12T07:04:13.671Z,22.42
2023-05-12T07:06:42.589Z,6.18
2023-05-12T07:09:10.850Z,11.60
2023-05-12T07:11:42.512Z,8.93
2023-05-12T07:14:10.986Z,11.57
2023-05-12T07:16:43.430Z,8.00
2023-05-12T07:19:11.951Z,32.42
2023-05-12T07:21:40.741Z,9.15
2023-05-12T07:24:08.957Z,8.23
2023-05-12T07:26:37.628Z,8.52
2023-05-12T07:29:07.437Z,8.05
2023-05-12T07:31:36.122Z,12.52
2023-05-12T07:34:04.751Z,8.07
2023-05-12T07:36:33.375Z,9.45
2023-05-12T07:39:01.745Z,12.05
2023-05-12T07:41:31.995Z,8.13
2023-05-12T07:44:02.379Z,5.68
2023-05-12T07:46:30.927Z,7.15
2023-05-12T07:48:59.198Z,9.13
2023-05-12T07:51:27.836Z,6.80
2023-05-12T07:53:56.614Z,9.63
2023-05-12T07:56:25.175Z,12.52
2023-05-12T07:58:53.744Z,13.00
2023-05-12T08:01:22.347Z,12.30
2023-05-12T08:03:54.028Z,9.50
2023-05-12T08:08:50.757Z,6.15
2023-05-12T08:11:19.350Z,8.82
2023-05-12T08:13:47.551Z,10.00
2023-05-12T08:16:16.104Z,62.90
2023-05-12T08:18:44.719Z,6.43
2023-05-12T08:21:13.323Z,6.80
2023-05-12T08:23:41.628Z,3.67
2023-05-12T08:26:10.127Z,9.45
2023-05-12T08:28:38.985Z,8.60
2023-05-12T08:31:07.758Z,13.95
2023-05-12T08:33:36.420Z,12.45
2023-05-12T08:36:05.345Z,5.18
2023-05-12T08:38:33.607Z,16.15
2023-05-12T08:41:20.103Z,14.55
2023-05-12T08:43:52.674Z,12.55
2023-05-12T08:46:22.299Z,11.77
2023-05-12T08:48:52.263Z,16.42
2023-05-12T08:51:22.161Z,11.95
2023-05-12T08:53:50.994Z,55.28
2023-05-12T08:58:54.299Z,12.70
2023-05-12T09:01:23.545Z,22.27
2023-05-12T09:03:53.170Z,61.35
2023-05-12T09:06:22.207Z,19.17
2023-05-12T09:08:51.759Z,6.93
2023-05-12T09:11:24.219Z,9.48
2023-05-12T09:14:03.637Z,14.63
2023-05-12T09:16:41.699Z,8.60
2023-05-12T09:19:10.063Z,6.32
2023-05-12T09:21:38.747Z,13.68
2023-05-12T09:24:09.295Z,9.85
2023-05-12T09:26:56.186Z,9.15
2023-05-12T09:29:31.876Z,6.80
2023-05-12T09:32:04.676Z,5.55
2023-05-12T09:34:41.108Z,36.97
2023-05-12T09:37:10.486Z,51.80
2023-05-12T09:39:38.814Z,7.45
2023-05-12T09:42:12.737Z,7.00
2023-05-12T09:44:41.477Z,8.45
2023-05-12T09:47:10.634Z,8.30
2023-05-12T09:49:39.000Z,7.15
2023-05-12T09:52:08.233Z,9.32
2023-05-12T09:54:39.858Z,44.00
2023-05-12T09:57:11.492Z,13.88
2023-05-12T09:59:41.640Z,10.90
2023-05-12T10:04:53.229Z,7.93
2023-05-12T10:07:24.076Z,18.15
2023-05-12T10:09:55.662Z,5.85
2023-05-12T10:14:52.417Z,7.57
2023-05-12T10:17:21.408Z,7.50
2023-05-12T10:19:50.807Z,8.95
2023-05-12T10:22:20.058Z,9.10
2023-05-12T10:24:49.302Z,8.07
2023-05-12T10:27:21.411Z,11.35
2023-05-12T10:32:20.180Z,18.45
2023-05-12T10:34:48.468Z,6.18
2023-05-12T10:37:17.052Z,11.65
2023-05-12T10:39:52.966Z,7.78
2023-05-12T10:42:25.781Z,8.90
2023-05-12T10:44:56.477Z,13.35
2023-05-12T10:47:37.351Z,9.20
2023-05-12T10:50:06.384Z,10.35
2023-05-12T10:52:35.111Z,7.18
2023-05-12T10:55:04.584Z,4.78
2023-05-12T10:57:33.942Z,34.55
2023-05-12T11:00:04.305Z,7.78
2023-05-12T11:02:36.989Z,7.73
2023-05-12T11:05:17.473Z,12.88
2023-05-12T11:07:50.482Z,7.50
2023-05-12T11:10:20.049Z,11.18
2023-05-12T11:12:49.933Z,4.30
2023-05-12T11:15:18.439Z,7.55
2023-05-12T11:17:47.126Z,7.70
2023-05-12T11:20:26.748Z,6.68
2023-05-12T11:22:57.438Z,12.88
2023-05-12T11:25:27.877Z,4.15
2023-05-12T11:27:56.839Z,7.65
2023-05-12T11:30:25.137Z,8.73
2023-05-12T11:33:02.561Z,9.90
2023-05-12T11:35:32.346Z,8.93
2023-05-12T11:38:03.056Z,8.18
2023-05-12T11:40:31.614Z,8.90
2023-05-12T11:43:10.236Z,8.57
2023-05-12T11:45:38.687Z,12.63
2023-05-12T11:48:10.145Z,7.60
2023-05-12T11:50:41.017Z,9.02
2023-05-12T11:53:16.010Z,8.30
2023-05-12T11:55:56.475Z,10.20
2023-05-12T11:58:27.319Z,9.27
2023-05-12T12:00:57.329Z,11.77
2023-05-12T12:03:26.106Z,7.68
2023-05-12T12:06:03.435Z,10.27
2023-05-12T12:08:32.119Z,13.68
2023-05-12T12:11:03.401Z,17.63
2023-05-12T12:13:32.373Z,14.63
2023-05-12T12:16:00.713Z,59.55
2023-05-12T12:18:29.345Z,13.32
2023-05-12T12:21:01.780Z,12.80
2023-05-12T12:23:37.661Z,9.43
2023-05-12T12:26:12.503Z,14.77
2023-05-12T12:28:41.245Z,7.32
2023-05-12T12:31:11.567Z,22.05
2023-05-12T12:33:40.818Z,12.57
2023-05-12T12:36:09.941Z,10.95
2023-05-12T12:38:38.614Z,12.43
2023-05-12T12:41:08.235Z,12.07
2023-05-12T12:43:37.048Z,9.10
2023-05-12T12:46:06.144Z,10.02
2023-05-12T12:48:34.693Z,9.80
2023-05-12T12:51:03.013Z,4.05
2023-05-12T12:53:31.786Z,9.40
2023-05-12T12:56:02.728Z,15.95
2023-05-12T13:00:59.452Z,4.28
2023-05-12T13:03:28.111Z,14.25
2023-05-12T13:05:56.375Z,12.77
2023-05-12T13:08:25.018Z,6.57
2023-05-12T13:10:53.583Z,6.22
2023-05-12T13:13:22.589Z,7.70
2023-05-12T13:15:51.618Z,15.90
2023-05-12T13:18:20.787Z,7.80
2023-05-12T13:20:49.223Z,63.67
2023-05-12T13:23:17.752Z,11.23
2023-05-12T13:25:46.562Z,13.05
2023-05-12T13:28:15.457Z,12.80
2023-05-12T13:30:44.330Z,9.98
2023-05-12T13:33:12.986Z,7.15
2023-05-12T13:35:41.747Z,7.60
2023-05-12T13:38:11.043Z,30.10
2023-05-12T13:40:39.272Z,8.82
2023-05-12T13:43:08.549Z,10.35
2023-05-12T13:45:37.035Z,13.02
2023-05-12T13:48:06.853Z,14.45
2023-05-12T13:50:35.231Z,6.97
2023-05-12T13:53:03.975Z,4.80
2023-05-12T13:55:34.393Z,16.30
2023-05-12T13:58:03.046Z,9.93
2023-05-12T14:00:31.478Z,14.77
2023-05-12T14:03:00.160Z,13.05
2023-05-12T14:05:29.078Z,9.20
2023-05-12T14:07:57.825Z,7.40
2023-05-12T14:10:26.258Z,5.57
2023-05-12T14:12:55.514Z,8.27
2023-05-12T14:15:36.123Z,23.50
2023-05-12T14:18:08.998Z,8.10
2023-05-12T14:20:37.249Z,8.48
2023-05-12T14:23:05.840Z,8.77
2023-05-12T14:25:34.355Z,12.55
2023-05-12T14:28:03.664Z,9.95
2023-05-12T14:30:35.074Z,7.70
2023-05-12T14:33:04.277Z,6.88
2023-05-12T14:35:32.654Z,8.52
2023-05-12T14:38:01.394Z,41.22
2023-05-12T14:40:29.645Z,8.18
2023-05-12T14:42:58.338Z,39.10
2023-05-12T14:45:27.030Z,29.02
2023-05-12T14:47:55.560Z,6.85
2023-05-12T14:50:24.225Z,9.20
2023-05-12T14:52:52.940Z,8.75
2023-05-12T14:55:22.706Z,6.43
2023-05-12T14:57:51.748Z,10.82
2023-05-12T15:00:21.392Z,8.25
2023-05-12T15:02:50.023Z,16.13
2023-05-12T15:05:18.486Z,6.45
2023-05-12T15:07:48.086Z,15.90
2023-05-12T15:10:16.457Z,10.25
2023-05-12T15:12:45.260Z,8.38
2023-05-12T15:15:13.763Z,6.85
2023-05-12T15:17:43.732Z,17.00
2023-05-12T15:20:37.474Z,11.70
2023-05-12T15:23:04.704Z,9.52
2023-05-12T15:25:34.248Z,20.00
2023-05-12T15:28:03.140Z,13.57
2023-05-12T15:30:35.894Z,7.50
2023-05-12T15:33:12.105Z,12.70
2023-05-12T15:36:11.818Z,29.85
2023-05-12T15:39:05.693Z,12.93
2023-05-12T15:41:46.017Z,6.80
2023-05-12T15:44:18.475Z,10.68
2023-05-12T15:46:47.180Z,9.35
2023-05-12T15:49:15.929Z,6.88
2023-05-12T15:51:44.690Z,5.30
2023-05-12T15:54:14.846Z,9.68
2023-05-12T15:56:43.620Z,8.50
2023-05-12T15:59:12.810Z,7.20
2023-05-12T16:01:41.249Z,12.88
2023-05-12T16:04:10.196Z,10.95
2023-05-12T16:06:38.776Z,14.73
2023-05-12T16:09:07.445Z,13.27
2023-05-12T16:11:35.897Z,8.38
2023-05-12T16:14:04.710Z,13.20
2023-05-12T16:16:33.633Z,27.08
2023-05-12T16:19:02.485Z,7.45
2023-05-12T16:21:30.898Z,5.75
2023-05-12T16:24:00.804Z,6.05
2023-05-12T16:26:33.290Z,4.17
2023-05-12T16:29:03.639Z,7.50
2023-05-12T16:31:33.894Z,8.23
2023-05-12T16:34:05.661Z,13.40
2023-05-12T16:36:34.107Z,24.00
2023-05-12T16:39:05.092Z,8.88
2023-05-12T16:41:33.370Z,5.03
2023-05-12T16:44:02.297Z,8.32
2023-05-12T16:46:32.781Z,13.45
2023-05-12T16:49:01.935Z,38.95
2023-05-12T16:51:31.114Z,6.95
2023-05-12T16:54:00.001Z,5.60
2023-05-12T16:56:31.834Z,5.90
2023-05-12T16:59:01.167Z,4.70
2023-05-12T17:01:31.727Z,28.88
2023-05-12T17:04:00.486Z,7.95
2023-05-12T17:06:28.868Z,6.38
2023-05-12T17:08:57.664Z,11.50
2023-05-12T17:11:26.360Z,9.60
2023-05-12T17:13:56.800Z,8.38
2023-05-12T17:16:25.196Z,10.93
2023-05-12T17:23:54.574Z,10.85
2023-05-12T17:26:23.110Z,9.10
2023-05-12T17:28:56.303Z,11.38
2023-05-12T17:31:42.194Z,28.50
2023-05-12T17:34:11.075Z,13.30
2023-05-12T17:36:39.636Z,5.15
2023-05-12T17:39:08.492Z,8.50
2023-05-12T17:41:39.564Z,12.50
2023-05-12T17:44:15.004Z,11.38
2023-05-12T17:46:44.720Z,8.25
2023-05-12T17:51:55.570Z,8.88
2023-05-12T17:54:24.266Z,24.70
2023-05-12T17:57:04.175Z,16.80
2023-05-12T18:02:54.090Z,10.10
2023-05-12T18:05:23.122Z,9.35
2023-05-12T18:07:51.755Z,11.05
2023-05-12T18:10:20.420Z,22.33
2023-05-12T18:12:56.300Z,13.65
2023-05-12T18:15:34.600Z,6.75
2023-05-12T18:18:07.617Z,10.93
2023-05-12T18:20:45.528Z,10.13
2023-05-12T18:23:16.455Z,11.75
2023-05-12T18:25:48.601Z,9.43
2023-05-12T18:28:38.909Z,15.15
2023-05-12T18:31:15.883Z,18.52
2023-05-12T18:33:50.114Z,10.70
2023-05-12T18:36:19.507Z,6.10
2023-05-12T18:38:48.327Z,6.03
2023-05-12T18:41:23.143Z,15.65
2023-05-12T18:44:00.879Z,22.60
2023-05-12T18:46:29.619Z,21.88
2023-05-12T18:48:58.118Z,23.75
2023-05-12T18:51:30.115Z,20.30
2023-05-12T18:53:58.617Z,16.65
2023-05-12T18:56:31.637Z,20.80
2023-05-12T18:59:02.513Z,39.97
2023-05-12T19:01:34.368Z,23.60
2023-05-12T19:04:03.867Z,23.33
2023-05-12T19:06:32.997Z,54.65
2023-05-12T19:09:01.559Z,63.42
2023-05-12T19:11:31.621Z,53.67
2023-05-12T19:14:45.429Z,38.58
2023-05-12T19:18:34.753Z,45.28
2023-05-12T19:20:52.288Z,26.40
2023-05-12T19:23:40.249Z,72.88
2023-05-12T19:27:42.463Z,75.93
2023-05-12T19:30:00.503Z,46.55
2023-05-12T19:32:35.887Z,192.40
2023-05-12T19:35:32.756Z,188.73
2023-05-12T19:38:43.632Z,110.97
2023-05-12T19:41:13.586Z,78.10
2023-05-12T19:43:54.136Z,46.05
2023-05-12T19:46:34.105Z,22.65
2023-05-12T19:49:33.201Z,29.52
2023-05-12T19:52:37.038Z,23.20
2023-05-12T19:55:22.492Z,96.72
2023-05-12T19:58:13.051Z,47.35
2023-05-12T20:00:41.633Z,41.22
2023-05-12T20:03:25.768Z,34.83
2023-05-12T20:06:14.600Z,38.45
2023-05-12T20:08:44.647Z,23.80
2023-05-12T20:11:25.190Z,23.95
2023-05-12T20:13:54.804Z,24.45
2023-05-12T20:16:30.831Z,27.08
2023-05-12T20:19:03.034Z,46.70
2023-05-12T20:21:32.206Z,36.20
2023-05-12T20:24:00.579Z,41.88
2023-05-12T20:26:30.747Z,47.05
2023-05-12T20:29:00.357Z,102.03
2023-05-12T20:31:54.160Z,55.22
2023-05-12T20:34:30.232Z,100.05
2023-05-12T20:37:29.831Z,80.43
2023-05-12T20:40:23.567Z,73.68
2023-05-12T20:42:53.945Z,40.13
2023-05-12T20:45:23.273Z,68.07
2023-05-12T20:47:56.663Z,56.00
2023-05-12T20:50:27.825Z,91.05
2023-05-12T20:53:44.096Z,68.35
2023-05-12T20:55:52.229Z,140.38
2023-05-12T20:58:24.573Z,110.80
2023-05-12T21:00:55.991Z,108.80
2023-05-12T21:03:29.409Z,46.70
2023-05-12T21:06:00.459Z,42.70
2023-05-12T21:08:29.748Z,48.08
2023-05-12T21:11:00.187Z,49.28
2023-05-12T21:13:30.802Z,39.70
2023-05-12T21:15:59.568Z,53.08
2023-05-12T21:18:30.733Z,43.75
2023-05-12T21:21:01.732Z,48.70
2023-05-12T21:23:30.626Z,38.97
2023-05-12T21:26:04.441Z,31.08
2023-05-12T21:28:37.939Z,26.20
2023-05-12T21:31:09.938Z,29.50
2023-05-12T21:33:41.388Z,28.65
2023-05-12T21:36:09.908Z,29.60
2023-05-12T21:38:40.925Z,28.23
2023-05-12T21:41:09.581Z,27.17
2023-05-12T21:43:38.303Z,29.85
2023-05-12T21:46:07.409Z,26.25
2023-05-12T21:48:37.102Z,30.77
2023-05-12T21:51:05.656Z,30.73
2023-05-12T21:53:34.322Z,22.35
2023-05-12T21:56:04.164Z,29.85
2023-05-12T21:58:34.613Z,26.70
2023-05-12T22:01:04.639Z,24.63
2023-05-12T22:03:33.608Z,26.33
2023-05-12T22:06:02.375Z,28.95
2023-05-12T22:08:31.128Z,23.75
2023-05-12T22:10:59.900Z,22.65
2023-05-12T22:13:29.022Z,22.48
2023-05-12T22:15:57.399Z,18.55
2023-05-12T22:18:26.211Z,18.98
2023-05-12T22:20:54.836Z,16.27
2023-05-12T22:23:24.943Z,19.25
2023-05-12T22:25:54.709Z,19.20
2023-05-12T22:28:24.142Z,29.05
2023-05-12T22:30:52.777Z,30.27
2023-05-12T22:33:21.799Z,25.25
2023-05-12T22:35:50.080Z,24.83
2023-05-12T22:38:19.916Z,23.98
2023-05-12T22:40:48.323Z,23.08
2023-05-12T22:43:18.223Z,27.00
2023-05-12T22:45:53.505Z,22.02
2023-05-12T22:48:22.861Z,24.35
2023-05-12T22:50:56.728Z,22.40
2023-05-12T22:53:26.974Z,21.25
2023-05-12T22:55:55.197Z,20.77
2023-05-12T22:58:24.556Z,17.75
2023-05-12T23:00:53.184Z,21.48
2023-05-12T23:03:21.968Z,16.38
2023-05-12T23:05:50.736Z,14.75
2023-05-12T23:08:20.126Z,16.10
2023-05-12T23:10:48.616Z,15.98
2023-05-12T23:13:18.331Z,15.93
2023-05-12T23:15:47.865Z,11.77
2023-05-12T23:18:17.027Z,12.85
2023-05-12T23:20:46.165Z,17.83
2023-05-12T23:23:14.590Z,13.15
2023-05-12T23:25:43.449Z,10.95
2023-05-12T23:28:11.803Z,12.52
2023-05-12T23:30:42.333Z,15.88
2023-05-12T23:33:11.676Z,15.27
2023-05-12T23:35:40.374Z,21.38
2023-05-12T23:38:08.849Z,17.20
2023-05-12T23:40:39.489Z,18.73
2023-05-12T23:43:08.388Z,21.25
2023-05-12T23:45:38.976Z,24.83
2023-05-12T23:48:07.736Z,20.85
2023-05-12T23:50:36.818Z,18.05
2023-05-12T23:53:05.204Z,19.60
2023-05-12T23:55:34.263Z,14.70
2023-05-12T23:58:03.704Z,17.23
